sensor_id;sensor_type;location;lat;lon;timestamp;P1;durP1;ratioP1;P2;durP2;ratioP2
12248;SDS011;6187;50.778;6.142;2023-07-20T00:02:01;3.60;;;2.03;;
12248;SDS011;6187;50.778;6.142;2023-07-20T00:04:31;3.37;;;2.30;;
12248;SDS011;6187;50.778;6.142;2023-07-20T00:07:00;2.77;;;2.03;;
12248;SDS011;6187;50.778;6.142;2023-07-20T00:09:29;2.40;;;2.07;;
12248;SDS011;6187;50.778;6.142;2023-07-20T00:11:57;2.20;;;2.00;;
12248;SDS011;6187;50.778;6.142;2023-07-20T00:14:27;2.23;;;1.87;;
12248;SDS011;6187;50.778;6.142;2023-07-20T00:16:56;2.47;;;2.13;;
12248;SDS011;6187;50.778;6.142;2023-07-20T00:19:26;2.60;;;2.10;;
12248;SDS011;6187;50.778;6.142;2023-07-20T00:21:55;3.03;;;2.10;;
12248;SDS011;6187;50.778;6.142;2023-07-20T00:24:23;3.40;;;2.00;;
12248;SDS011;6187;50.778;6.142;2023-07-20T00:26:52;4.30;;;2.50;;
12248;SDS011;6187;50.778;6.142;2023-07-20T00:29:21;2.30;;;1.97;;
12248;SDS011;6187;50.778;6.142;2023-07-20T00:31:49;3.33;;;2.03;;
12248;SDS011;6187;50.778;6.142;2023-07-20T00:34:18;2.17;;;1.97;;
12248;SDS011;6187;50.778;6.142;2023-07-20T00:36:48;1.90;;;1.70;;
12248;SDS011;6187;50.778;6.142;2023-07-20T00:39:17;2.30;;;1.97;;
12248;SDS011;6187;50.778;6.142;2023-07-20T00:41:45;3.03;;;2.33;;
12248;SDS011;6187;50.778;6.142;2023-07-20T00:44:14;2.17;;;1.93;;
12248;SDS011;6187;50.778;6.142;2023-07-20T00:46:42;2.77;;;2.17;;
12248;SDS011;6187;50.778;6.142;2023-07-20T00:49:13;3.13;;;2.27;;
12248;SDS011;6187;50.778;6.142;2023-07-20T00:51:42;2.77;;;1.87;;
12248;SDS011;6187;50.778;6.142;2023-07-20T00:54:12;2.13;;;1.57;;
12248;SDS011;6187;50.778;6.142;2023-07-20T00:56:40;2.63;;;2.10;;
12248;SDS011;6187;50.778;6.142;2023-07-20T00:59:09;2.80;;;2.13;;
12248;SDS011;6187;50.778;6.142;2023-07-20T01:01:38;2.33;;;2.03;;
12248;SDS011;6187;50.778;6.142;2023-07-20T01:04:07;3.70;;;2.20;;
12248;SDS011;6187;50.778;6.142;2023-07-20T01:06:36;2.40;;;2.20;;
12248;SDS011;6187;50.778;6.142;2023-07-20T01:09:08;2.10;;;1.90;;
12248;SDS011;6187;50.778;6.142;2023-07-20T01:11:43;2.53;;;1.93;;
12248;SDS011;6187;50.778;6.142;2023-07-20T01:14:14;1.90;;;1.77;;
12248;SDS011;6187;50.778;6.142;2023-07-20T01:16:44;2.23;;;2.03;;
12248;SDS011;6187;50.778;6.142;2023-07-20T01:19:13;2.20;;;2.00;;
12248;SDS011;6187;50.778;6.142;2023-07-20T01:21:45;2.90;;;1.97;;
12248;SDS011;6187;50.778;6.142;2023-07-20T01:27:18;2.53;;;2.00;;
12248;SDS011;6187;50.778;6.142;2023-07-20T01:29:55;2.60;;;1.77;;
12248;SDS011;6187;50.778;6.142;2023-07-20T01:32:33;1.80;;;1.70;;
12248;SDS011;6187;50.778;6.142;2023-07-20T01:35:02;3.33;;;1.90;;
12248;SDS011;6187;50.778;6.142;2023-07-20T01:37:30;2.10;;;1.90;;
12248;SDS011;6187;50.778;6.142;2023-07-20T01:40:00;2.43;;;1.90;;
12248;SDS011;6187;50.778;6.142;2023-07-20T01:42:29;2.67;;;2.00;;
12248;SDS011;6187;50.778;6.142;2023-07-20T01:44:57;2.63;;;2.00;;
12248;SDS011;6187;50.778;6.142;2023-07-20T01:47:26;2.07;;;1.87;;
12248;SDS011;6187;50.778;6.142;2023-07-20T01:49:56;1.73;;;1.63;;
12248;SDS011;6187;50.778;6.142;2023-07-20T01:52:25;1.73;;;1.60;;
12248;SDS011;6187;50.778;6.142;2023-07-20T01:54:53;2.40;;;2.20;;
12248;SDS011;6187;50.778;6.142;2023-07-20T01:57:22;2.77;;;1.80;;
12248;SDS011;6187;50.778;6.142;2023-07-20T01:59:50;2.30;;;1.87;;
12248;SDS011;6187;50.778;6.142;2023-07-20T02:02:19;2.60;;;1.63;;
12248;SDS011;6187;50.778;6.142;2023-07-20T02:04:48;1.97;;;1.77;;
12248;SDS011;6187;50.778;6.142;2023-07-20T02:07:18;2.23;;;2.03;;
12248;SDS011;6187;50.778;6.142;2023-07-20T02:09:46;2.63;;;1.90;;
12248;SDS011;6187;50.778;6.142;2023-07-20T02:12:15;1.90;;;1.60;;
12248;SDS011;6187;50.778;6.142;2023-07-20T02:14:43;2.77;;;1.80;;
12248;SDS011;6187;50.778;6.142;2023-07-20T02:17:12;2.50;;;1.73;;
12248;SDS011;6187;50.778;6.142;2023-07-20T02:19:41;2.33;;;1.90;;
12248;SDS011;6187;50.778;6.142;2023-07-20T02:22:09;3.17;;;1.90;;
12248;SDS011;6187;50.778;6.142;2023-07-20T02:24:39;2.67;;;2.23;;
12248;SDS011;6187;50.778;6.142;2023-07-20T02:27:08;3.73;;;2.00;;
12248;SDS011;6187;50.778;6.142;2023-07-20T02:29:36;2.60;;;2.40;;
12248;SDS011;6187;50.778;6.142;2023-07-20T02:32:05;2.00;;;1.80;;
12248;SDS011;6187;50.778;6.142;2023-07-20T02:34:34;2.63;;;1.97;;
12248;SDS011;6187;50.778;6.142;2023-07-20T02:37:03;2.00;;;1.80;;
12248;SDS011;6187;50.778;6.142;2023-07-20T02:39:32;1.90;;;1.70;;
12248;SDS011;6187;50.778;6.142;2023-07-20T02:42:02;2.50;;;1.73;;
12248;SDS011;6187;50.778;6.142;2023-07-20T02:44:30;2.37;;;1.53;;
12248;SDS011;6187;50.778;6.142;2023-07-20T02:46:59;1.80;;;1.60;;
12248;SDS011;6187;50.778;6.142;2023-07-20T02:49:28;2.40;;;1.87;;
12248;SDS011;6187;50.778;6.142;2023-07-20T02:51:56;1.80;;;1.60;;
12248;SDS011;6187;50.778;6.142;2023-07-20T02:54:25;2.30;;;2.10;;
12248;SDS011;6187;50.778;6.142;2023-07-20T02:56:53;3.00;;;2.07;;
12248;SDS011;6187;50.778;6.142;2023-07-20T02:59:23;1.80;;;1.70;;
12248;SDS011;6187;50.778;6.142;2023-07-20T03:01:52;2.53;;;1.70;;
12248;SDS011;6187;50.778;6.142;2023-07-20T03:04:22;2.43;;;2.23;;
12248;SDS011;6187;50.778;6.142;2023-07-20T03:06:51;2.87;;;1.80;;
12248;SDS011;6187;50.778;6.142;2023-07-20T03:09:20;1.90;;;1.80;;
12248;SDS011;6187;50.778;6.142;2023-07-20T03:11:49;2.00;;;1.80;;
12248;SDS011;6187;50.778;6.142;2023-07-20T03:14:18;3.07;;;1.90;;
12248;SDS011;6187;50.778;6.142;2023-07-20T03:16:48;2.20;;;1.80;;
12248;SDS011;6187;50.778;6.142;2023-07-20T03:19:16;2.13;;;1.80;;
12248;SDS011;6187;50.778;6.142;2023-07-20T03:21:45;3.23;;;1.73;;
12248;SDS011;6187;50.778;6.142;2023-07-20T03:24:14;2.20;;;1.80;;
12248;SDS011;6187;50.778;6.142;2023-07-20T03:26:43;2.40;;;1.90;;
12248;SDS011;6187;50.778;6.142;2023-07-20T03:29:11;2.93;;;1.87;;
12248;SDS011;6187;50.778;6.142;2023-07-20T03:31:40;3.53;;;2.00;;
12248;SDS011;6187;50.778;6.142;2023-07-20T03:34:10;2.20;;;2.00;;
12248;SDS011;6187;50.778;6.142;2023-07-20T03:36:42;2.20;;;2.00;;
12248;SDS011;6187;50.778;6.142;2023-07-20T03:39:10;2.13;;;1.93;;
12248;SDS011;6187;50.778;6.142;2023-07-20T03:41:39;2.10;;;1.90;;
12248;SDS011;6187;50.778;6.142;2023-07-20T03:44:07;2.40;;;2.00;;
12248;SDS011;6187;50.778;6.142;2023-07-20T03:46:36;2.03;;;1.83;;
12248;SDS011;6187;50.778;6.142;2023-07-20T03:49:05;4.07;;;2.10;;
12248;SDS011;6187;50.778;6.142;2023-07-20T03:51:36;2.40;;;2.20;;
12248;SDS011;6187;50.778;6.142;2023-07-20T03:54:05;3.53;;;2.33;;
12248;SDS011;6187;50.778;6.142;2023-07-20T03:56:34;3.57;;;2.13;;
12248;SDS011;6187;50.778;6.142;2023-07-20T03:59:03;2.70;;;1.93;;
12248;SDS011;6187;50.778;6.142;2023-07-20T04:01:31;3.80;;;2.37;;
12248;SDS011;6187;50.778;6.142;2023-07-20T04:04:04;2.93;;;2.33;;
12248;SDS011;6187;50.778;6.142;2023-07-20T04:06:33;3.20;;;2.17;;
12248;SDS011;6187;50.778;6.142;2023-07-20T04:09:03;3.37;;;2.20;;
12248;SDS011;6187;50.778;6.142;2023-07-20T04:11:32;3.07;;;2.10;;
12248;SDS011;6187;50.778;6.142;2023-07-20T04:14:01;2.60;;;2.20;;
12248;SDS011;6187;50.778;6.142;2023-07-20T04:16:30;2.60;;;2.40;;
12248;SDS011;6187;50.778;6.142;2023-07-20T04:19:00;2.53;;;2.30;;
12248;SDS011;6187;50.778;6.142;2023-07-20T04:21:28;2.40;;;2.20;;
12248;SDS011;6187;50.778;6.142;2023-07-20T04:23:57;3.83;;;2.63;;
12248;SDS011;6187;50.778;6.142;2023-07-20T04:26:27;3.87;;;2.83;;
12248;SDS011;6187;50.778;6.142;2023-07-20T04:28:55;3.10;;;2.73;;
12248;SDS011;6187;50.778;6.142;2023-07-20T04:31:25;4.93;;;2.80;;
12248;SDS011;6187;50.778;6.142;2023-07-20T04:33:54;2.77;;;2.33;;
12248;SDS011;6187;50.778;6.142;2023-07-20T04:36:22;2.63;;;2.40;;
12248;SDS011;6187;50.778;6.142;2023-07-20T04:38:51;3.00;;;2.50;;
12248;SDS011;6187;50.778;6.142;2023-07-20T04:41:20;4.27;;;3.30;;
12248;SDS011;6187;50.778;6.142;2023-07-20T04:43:50;3.50;;;2.50;;
12248;SDS011;6187;50.778;6.142;2023-07-20T04:46:18;3.37;;;3.00;;
12248;SDS011;6187;50.778;6.142;2023-07-20T04:48:48;3.67;;;2.70;;
12248;SDS011;6187;50.778;6.142;2023-07-20T04:51:17;3.17;;;2.40;;
12248;SDS011;6187;50.778;6.142;2023-07-20T04:53:47;4.90;;;2.57;;
12248;SDS011;6187;50.778;6.142;2023-07-20T04:56:16;4.40;;;3.23;;
12248;SDS011;6187;50.778;6.142;2023-07-20T04:58:45;4.60;;;3.27;;
12248;SDS011;6187;50.778;6.142;2023-07-20T05:01:15;2.83;;;2.53;;
12248;SDS011;6187;50.778;6.142;2023-07-20T05:03:43;4.07;;;2.73;;
12248;SDS011;6187;50.778;6.142;2023-07-20T05:06:13;3.57;;;2.90;;
12248;SDS011;6187;50.778;6.142;2023-07-20T05:08:41;3.83;;;3.27;;
12248;SDS011;6187;50.778;6.142;2023-07-20T05:11:11;3.90;;;3.30;;
12248;SDS011;6187;50.778;6.142;2023-07-20T05:13:40;3.70;;;3.20;;
12248;SDS011;6187;50.778;6.142;2023-07-20T05:16:08;3.60;;;3.10;;
12248;SDS011;6187;50.778;6.142;2023-07-20T05:18:38;4.03;;;3.13;;
12248;SDS011;6187;50.778;6.142;2023-07-20T05:21:07;3.47;;;3.10;;
12248;SDS011;6187;50.778;6.142;2023-07-20T05:23:35;3.70;;;3.20;;
12248;SDS011;6187;50.778;6.142;2023-07-20T05:26:04;4.47;;;3.20;;
12248;SDS011;6187;50.778;6.142;2023-07-20T05:28:33;4.50;;;3.20;;
12248;SDS011;6187;50.778;6.142;2023-07-20T05:31:02;6.07;;;3.50;;
12248;SDS011;6187;50.778;6.142;2023-07-20T05:33:31;5.67;;;3.33;;
12248;SDS011;6187;50.778;6.142;2023-07-20T05:36:01;4.37;;;3.27;;
12248;SDS011;6187;50.778;6.142;2023-07-20T05:38:30;3.77;;;3.27;;
12248;SDS011;6187;50.778;6.142;2023-07-20T05:40:59;3.47;;;3.17;;
12248;SDS011;6187;50.778;6.142;2023-07-20T05:43:30;4.03;;;3.43;;
12248;SDS011;6187;50.778;6.142;2023-07-20T05:45:58;4.57;;;3.47;;
12248;SDS011;6187;50.778;6.142;2023-07-20T05:48:27;4.63;;;3.03;;
12248;SDS011;6187;50.778;6.142;2023-07-20T05:50:55;3.83;;;3.10;;
12248;SDS011;6187;50.778;6.142;2023-07-20T05:53:25;3.37;;;2.90;;
12248;SDS011;6187;50.778;6.142;2023-07-20T05:55:54;3.40;;;3.10;;
12248;SDS011;6187;50.778;6.142;2023-07-20T05:58:23;4.73;;;3.20;;
12248;SDS011;6187;50.778;6.142;2023-07-20T06:00:53;7.00;;;3.57;;
12248;SDS011;6187;50.778;6.142;2023-07-20T06:03:21;5.27;;;3.20;;
12248;SDS011;6187;50.778;6.142;2023-07-20T06:05:50;4.80;;;3.23;;
12248;SDS011;6187;50.778;6.142;2023-07-20T06:08:19;4.00;;;3.60;;
12248;SDS011;6187;50.778;6.142;2023-07-20T06:10:50;4.93;;;3.57;;
12248;SDS011;6187;50.778;6.142;2023-07-20T06:13:19;4.20;;;3.60;;
12248;SDS011;6187;50.778;6.142;2023-07-20T06:15:49;3.90;;;3.60;;
12248;SDS011;6187;50.778;6.142;2023-07-20T06:18:17;4.17;;;3.53;;
12248;SDS011;6187;50.778;6.142;2023-07-20T06:20:50;5.10;;;3.73;;
12248;SDS011;6187;50.778;6.142;2023-07-20T06:23:19;5.53;;;3.53;;
12248;SDS011;6187;50.778;6.142;2023-07-20T06:25:48;4.93;;;3.30;;
12248;SDS011;6187;50.778;6.142;2023-07-20T06:28:18;3.57;;;3.23;;
12248;SDS011;6187;50.778;6.142;2023-07-20T06:30:46;5.37;;;4.10;;
12248;SDS011;6187;50.778;6.142;2023-07-20T06:33:15;5.20;;;3.83;;
12248;SDS011;6187;50.778;6.142;2023-07-20T06:35:44;6.43;;;4.27;;
12248;SDS011;6187;50.778;6.142;2023-07-20T06:38:13;3.90;;;3.50;;
12248;SDS011;6187;50.778;6.142;2023-07-20T06:40:45;3.97;;;3.43;;
12248;SDS011;6187;50.778;6.142;2023-07-20T06:43:14;4.73;;;3.30;;
12248;SDS011;6187;50.778;6.142;2023-07-20T06:45:51;5.33;;;3.47;;
12248;SDS011;6187;50.778;6.142;2023-07-20T06:48:21;5.37;;;3.57;;
12248;SDS011;6187;50.778;6.142;2023-07-20T06:50:49;3.97;;;3.40;;
12248;SDS011;6187;50.778;6.142;2023-07-20T06:53:18;3.87;;;3.53;;
12248;SDS011;6187;50.778;6.142;2023-07-20T06:55:47;4.13;;;3.27;;
12248;SDS011;6187;50.778;6.142;2023-07-20T06:58:16;6.03;;;3.87;;
12248;SDS011;6187;50.778;6.142;2023-07-20T07:00:45;4.30;;;3.67;;
12248;SDS011;6187;50.778;6.142;2023-07-20T07:03:15;4.10;;;3.70;;
12248;SDS011;6187;50.778;6.142;2023-07-20T07:05:44;3.67;;;3.37;;
12248;SDS011;6187;50.778;6.142;2023-07-20T07:08:17;3.90;;;3.50;;
12248;SDS011;6187;50.778;6.142;2023-07-20T07:10:45;5.63;;;3.73;;
12248;SDS011;6187;50.778;6.142;2023-07-20T07:13:14;4.50;;;3.70;;
12248;SDS011;6187;50.778;6.142;2023-07-20T07:15:43;3.63;;;3.30;;
12248;SDS011;6187;50.778;6.142;2023-07-20T07:18:12;3.83;;;3.53;;
12248;SDS011;6187;50.778;6.142;2023-07-20T07:20:42;5.70;;;3.90;;
12248;SDS011;6187;50.778;6.142;2023-07-20T07:23:18;3.57;;;3.27;;
12248;SDS011;6187;50.778;6.142;2023-07-20T07:25:46;3.60;;;3.30;;
12248;SDS011;6187;50.778;6.142;2023-07-20T07:28:15;3.27;;;2.97;;
12248;SDS011;6187;50.778;6.142;2023-07-20T07:30:44;4.13;;;2.87;;
12248;SDS011;6187;50.778;6.142;2023-07-20T07:33:13;3.53;;;3.23;;
12248;SDS011;6187;50.778;6.142;2023-07-20T07:35:43;3.87;;;2.90;;
12248;SDS011;6187;50.778;6.142;2023-07-20T07:38:11;4.77;;;3.20;;
12248;SDS011;6187;50.778;6.142;2023-07-20T07:40:44;3.40;;;3.10;;
12248;SDS011;6187;50.778;6.142;2023-07-20T07:43:13;3.60;;;2.80;;
12248;SDS011;6187;50.778;6.142;2023-07-20T07:45:42;2.97;;;2.73;;
12248;SDS011;6187;50.778;6.142;2023-07-20T07:48:10;3.80;;;3.00;;
12248;SDS011;6187;50.778;6.142;2023-07-20T07:50:40;3.07;;;2.60;;
12248;SDS011;6187;50.778;6.142;2023-07-20T07:53:10;2.67;;;2.47;;
12248;SDS011;6187;50.778;6.142;2023-07-20T07:55:39;3.00;;;2.73;;
12248;SDS011;6187;50.778;6.142;2023-07-20T07:58:08;2.87;;;2.40;;
12248;SDS011;6187;50.778;6.142;2023-07-20T08:00:36;2.67;;;2.47;;
12248;SDS011;6187;50.778;6.142;2023-07-20T08:03:05;2.87;;;2.67;;
12248;SDS011;6187;50.778;6.142;2023-07-20T08:05:34;2.87;;;2.43;;
12248;SDS011;6187;50.778;6.142;2023-07-20T08:08:03;2.73;;;2.53;;
12248;SDS011;6187;50.778;6.142;2023-07-20T08:10:33;2.30;;;2.10;;
12248;SDS011;6187;50.778;6.142;2023-07-20T08:13:02;2.50;;;1.83;;
12248;SDS011;6187;50.778;6.142;2023-07-20T08:15:30;1.70;;;1.60;;
12248;SDS011;6187;50.778;6.142;2023-07-20T08:17:59;1.37;;;1.20;;
12248;SDS011;6187;50.778;6.142;2023-07-20T08:20:28;1.20;;;1.10;;
12248;SDS011;6187;50.778;6.142;2023-07-20T08:22:58;1.70;;;1.50;;
12248;SDS011;6187;50.778;6.142;2023-07-20T08:25:27;3.20;;;1.80;;
12248;SDS011;6187;50.778;6.142;2023-07-20T08:27:57;2.57;;;1.90;;
12248;SDS011;6187;50.778;6.142;2023-07-20T08:30:27;1.60;;;1.50;;
12248;SDS011;6187;50.778;6.142;2023-07-20T08:33:07;1.80;;;1.60;;
12248;SDS011;6187;50.778;6.142;2023-07-20T08:35:36;1.53;;;1.30;;
12248;SDS011;6187;50.778;6.142;2023-07-20T08:38:04;1.67;;;1.37;;
12248;SDS011;6187;50.778;6.142;2023-07-20T08:40:39;2.10;;;1.30;;
12248;SDS011;6187;50.778;6.142;2023-07-20T08:43:09;2.07;;;1.20;;
12248;SDS011;6187;50.778;6.142;2023-07-20T08:45:39;1.43;;;1.33;;
12248;SDS011;6187;50.778;6.142;2023-07-20T08:48:08;1.20;;;1.10;;
12248;SDS011;6187;50.778;6.142;2023-07-20T08:50:37;1.20;;;1.10;;
12248;SDS011;6187;50.778;6.142;2023-07-20T08:53:06;1.60;;;1.27;;
12248;SDS011;6187;50.778;6.142;2023-07-20T08:55:35;1.90;;;1.47;;
12248;SDS011;6187;50.778;6.142;2023-07-20T08:58:03;1.80;;;1.60;;
12248;SDS011;6187;50.778;6.142;2023-07-20T09:00:34;1.90;;;1.80;;
12248;SDS011;6187;50.778;6.142;2023-07-20T09:03:06;1.80;;;1.70;;
12248;SDS011;6187;50.778;6.142;2023-07-20T09:05:35;1.47;;;1.37;;
12248;SDS011;6187;50.778;6.142;2023-07-20T09:08:03;1.60;;;1.50;;
12248;SDS011;6187;50.778;6.142;2023-07-20T09:10:32;1.70;;;1.60;;
12248;SDS011;6187;50.778;6.142;2023-07-20T09:13:00;1.53;;;1.43;;
12248;SDS011;6187;50.778;6.142;2023-07-20T09:15:29;2.43;;;1.53;;
12248;SDS011;6187;50.778;6.142;2023-07-20T09:18:00;1.60;;;1.50;;
12248;SDS011;6187;50.778;6.142;2023-07-20T09:20:31;1.30;;;1.20;;
12248;SDS011;6187;50.778;6.142;2023-07-20T09:23:00;1.43;;;1.30;;
12248;SDS011;6187;50.778;6.142;2023-07-20T09:25:32;1.90;;;1.40;;
12248;SDS011;6187;50.778;6.142;2023-07-20T09:28:03;1.33;;;1.20;;
12248;SDS011;6187;50.778;6.142;2023-07-20T09:30:32;1.23;;;1.13;;
12248;SDS011;6187;50.778;6.142;2023-07-20T09:33:02;1.33;;;1.23;;
12248;SDS011;6187;50.778;6.142;2023-07-20T09:35:31;1.60;;;1.37;;
12248;SDS011;6187;50.778;6.142;2023-07-20T09:38:09;1.60;;;1.30;;
12248;SDS011;6187;50.778;6.142;2023-07-20T09:40:41;1.30;;;1.17;;
12248;SDS011;6187;50.778;6.142;2023-07-20T09:43:12;2.00;;;1.30;;
12248;SDS011;6187;50.778;6.142;2023-07-20T09:45:46;1.20;;;1.10;;
12248;SDS011;6187;50.778;6.142;2023-07-20T09:48:23;1.30;;;1.20;;
12248;SDS011;6187;50.778;6.142;2023-07-20T09:50:55;1.20;;;1.10;;
12248;SDS011;6187;50.778;6.142;2023-07-20T09:53:24;2.47;;;1.20;;
12248;SDS011;6187;50.778;6.142;2023-07-20T09:55:53;1.30;;;1.20;;
12248;SDS011;6187;50.778;6.142;2023-07-20T09:58:22;1.93;;;1.10;;
12248;SDS011;6187;50.778;6.142;2023-07-20T10:00:51;1.90;;;1.10;;
12248;SDS011;6187;50.778;6.142;2023-07-20T10:03:22;3.00;;;1.33;;
12248;SDS011;6187;50.778;6.142;2023-07-20T10:05:51;1.27;;;1.17;;
12248;SDS011;6187;50.778;6.142;2023-07-20T10:08:20;1.33;;;1.23;;
12248;SDS011;6187;50.778;6.142;2023-07-20T10:10:55;1.23;;;1.13;;
12248;SDS011;6187;50.778;6.142;2023-07-20T10:13:25;1.40;;;1.30;;
12248;SDS011;6187;50.778;6.142;2023-07-20T10:15:54;1.40;;;1.30;;
12248;SDS011;6187;50.778;6.142;2023-07-20T10:18:31;1.40;;;1.30;;
12248;SDS011;6187;50.778;6.142;2023-07-20T10:21:03;1.13;;;1.07;;
12248;SDS011;6187;50.778;6.142;2023-07-20T10:23:38;1.30;;;1.10;;
12248;SDS011;6187;50.778;6.142;2023-07-20T10:26:07;1.40;;;1.30;;
12248;SDS011;6187;50.778;6.142;2023-07-20T10:28:36;1.97;;;1.30;;
12248;SDS011;6187;50.778;6.142;2023-07-20T10:31:05;1.30;;;1.20;;
12248;SDS011;6187;50.778;6.142;2023-07-20T10:33:35;1.37;;;1.27;;
12248;SDS011;6187;50.778;6.142;2023-07-20T10:36:06;1.17;;;1.07;;
12248;SDS011;6187;50.778;6.142;2023-07-20T10:38:40;1.27;;;1.17;;
12248;SDS011;6187;50.778;6.142;2023-07-20T10:41:15;1.23;;;1.13;;
12248;SDS011;6187;50.778;6.142;2023-07-20T10:43:46;1.33;;;1.23;;
12248;SDS011;6187;50.778;6.142;2023-07-20T10:46:16;1.30;;;1.13;;
12248;SDS011;6187;50.778;6.142;2023-07-20T10:49:03;1.93;;;1.70;;
12248;SDS011;6187;50.778;6.142;2023-07-20T10:51:38;1.33;;;1.23;;
12248;SDS011;6187;50.778;6.142;2023-07-20T10:54:08;1.40;;;1.30;;
12248;SDS011;6187;50.778;6.142;2023-07-20T10:56:36;1.27;;;1.17;;
12248;SDS011;6187;50.778;6.142;2023-07-20T10:59:17;2.13;;;1.30;;
12248;SDS011;6187;50.778;6.142;2023-07-20T11:01:47;1.90;;;1.70;;
12248;SDS011;6187;50.778;6.142;2023-07-20T11:04:18;1.43;;;1.33;;
12248;SDS011;6187;50.778;6.142;2023-07-20T11:06:48;1.43;;;1.33;;
12248;SDS011;6187;50.778;6.142;2023-07-20T11:09:23;2.50;;;1.20;;
12248;SDS011;6187;50.778;6.142;2023-07-20T11:11:54;1.90;;;1.50;;
12248;SDS011;6187;50.778;6.142;2023-07-20T11:14:39;1.30;;;1.03;;
12248;SDS011;6187;50.778;6.142;2023-07-20T11:17:11;1.73;;;1.13;;
12248;SDS011;6187;50.778;6.142;2023-07-20T11:19:42;1.17;;;1.07;;
12248;SDS011;6187;50.778;6.142;2023-07-20T11:22:13;1.40;;;1.10;;
12248;SDS011;6187;50.778;6.142;2023-07-20T11:24:44;1.07;;;1.07;;
12248;SDS011;6187;50.778;6.142;2023-07-20T11:27:13;1.10;;;1.00;;
12248;SDS011;6187;50.778;6.142;2023-07-20T11:29:42;1.10;;;1.00;;
12248;SDS011;6187;50.778;6.142;2023-07-20T11:32:10;1.30;;;1.20;;
12248;SDS011;6187;50.778;6.142;2023-07-20T11:34:39;1.08;;;0.95;;
12248;SDS011;6187;50.778;6.142;2023-07-20T11:37:09;1.05;;;0.95;;
12248;SDS011;6187;50.778;6.142;2023-07-20T11:39:38;1.33;;;1.15;;
12248;SDS011;6187;50.778;6.142;2023-07-20T11:42:07;1.23;;;0.90;;
12248;SDS011;6187;50.778;6.142;2023-07-20T11:44:36;0.90;;;0.90;;
12248;SDS011;6187;50.778;6.142;2023-07-20T11:47:06;0.98;;;0.98;;
12248;SDS011;6187;50.778;6.142;2023-07-20T11:49:35;1.63;;;1.23;;
12248;SDS011;6187;50.778;6.142;2023-07-20T11:52:05;1.13;;;1.02;;
12248;SDS011;6187;50.778;6.142;2023-07-20T11:54:36;1.08;;;0.80;;
12248;SDS011;6187;50.778;6.142;2023-07-20T11:57:06;0.85;;;0.85;;
12248;SDS011;6187;50.778;6.142;2023-07-20T11:59:35;0.93;;;0.90;;
12248;SDS011;6187;50.778;6.142;2023-07-20T12:02:03;1.95;;;1.17;;
12248;SDS011;6187;50.778;6.142;2023-07-20T12:04:33;1.00;;;0.75;;
12248;SDS011;6187;50.778;6.142;2023-07-20T12:07:02;1.00;;;0.90;;
12248;SDS011;6187;50.778;6.142;2023-07-20T12:09:31;1.00;;;0.90;;
12248;SDS011;6187;50.778;6.142;2023-07-20T12:12:18;0.82;;;0.82;;
12248;SDS011;6187;50.778;6.142;2023-07-20T12:14:47;1.27;;;1.08;;
12248;SDS011;6187;50.778;6.142;2023-07-20T12:17:15;0.80;;;0.80;;
12248;SDS011;6187;50.778;6.142;2023-07-20T12:19:45;1.30;;;0.70;;
12248;SDS011;6187;50.778;6.142;2023-07-20T12:22:13;0.93;;;0.93;;
12248;SDS011;6187;50.778;6.142;2023-07-20T12:24:42;1.33;;;0.88;;
12248;SDS011;6187;50.778;6.142;2023-07-20T12:27:13;0.82;;;0.73;;
12248;SDS011;6187;50.778;6.142;2023-07-20T12:29:46;0.90;;;0.90;;
12248;SDS011;6187;50.778;6.142;2023-07-20T12:32:15;1.10;;;1.00;;
12248;SDS011;6187;50.778;6.142;2023-07-20T12:34:43;1.88;;;0.90;;
12248;SDS011;6187;50.778;6.142;2023-07-20T12:37:12;1.00;;;0.90;;
12248;SDS011;6187;50.778;6.142;2023-07-20T12:39:40;0.80;;;0.80;;
12248;SDS011;6187;50.778;6.142;2023-07-20T12:42:12;1.00;;;0.90;;
12248;SDS011;6187;50.778;6.142;2023-07-20T12:44:43;0.95;;;0.90;;
12248;SDS011;6187;50.778;6.142;2023-07-20T12:47:13;2.50;;;1.00;;
12248;SDS011;6187;50.778;6.142;2023-07-20T12:49:42;1.00;;;0.90;;
12248;SDS011;6187;50.778;6.142;2023-07-20T12:52:11;0.85;;;0.85;;
12248;SDS011;6187;50.778;6.142;2023-07-20T12:54:41;1.08;;;0.80;;
12248;SDS011;6187;50.778;6.142;2023-07-20T12:57:09;0.77;;;0.77;;
12248;SDS011;6187;50.778;6.142;2023-07-20T12:59:39;1.02;;;0.73;;
12248;SDS011;6187;50.778;6.142;2023-07-20T13:02:07;0.80;;;0.80;;
12248;SDS011;6187;50.778;6.142;2023-07-20T13:04:37;0.82;;;0.82;;
12248;SDS011;6187;50.778;6.142;2023-07-20T13:07:09;1.00;;;0.70;;
12248;SDS011;6187;50.778;6.142;2023-07-20T13:09:40;0.75;;;0.75;;
12248;SDS011;6187;50.778;6.142;2023-07-20T13:12:09;0.70;;;0.70;;
12248;SDS011;6187;50.778;6.142;2023-07-20T13:14:37;1.08;;;0.90;;
12248;SDS011;6187;50.778;6.142;2023-07-20T13:17:06;0.82;;;0.82;;
12248;SDS011;6187;50.778;6.142;2023-07-20T13:19:38;0.70;;;0.70;;
12248;SDS011;6187;50.778;6.142;2023-07-20T13:22:06;0.80;;;0.80;;
12248;SDS011;6187;50.778;6.142;2023-07-20T13:24:35;0.90;;;0.90;;
12248;SDS011;6187;50.778;6.142;2023-07-20T13:27:04;1.15;;;0.80;;
12248;SDS011;6187;50.778;6.142;2023-07-20T13:29:32;0.88;;;0.85;;
12248;SDS011;6187;50.778;6.142;2023-07-20T13:32:01;0.80;;;0.80;;
12248;SDS011;6187;50.778;6.142;2023-07-20T13:34:30;1.13;;;0.90;;
12248;SDS011;6187;50.778;6.142;2023-07-20T13:37:00;1.02;;;0.70;;
12248;SDS011;6187;50.778;6.142;2023-07-20T13:39:29;1.13;;;0.75;;
12248;SDS011;6187;50.778;6.142;2023-07-20T13:41:58;0.70;;;0.70;;
12248;SDS011;6187;50.778;6.142;2023-07-20T13:44:28;0.63;;;0.63;;
12248;SDS011;6187;50.778;6.142;2023-07-20T13:46:56;1.00;;;0.90;;
12248;SDS011;6187;50.778;6.142;2023-07-20T13:49:45;0.70;;;0.70;;
12248;SDS011;6187;50.778;6.142;2023-07-20T13:52:15;1.13;;;0.90;;
12248;SDS011;6187;50.778;6.142;2023-07-20T13:54:47;0.90;;;0.70;;
12248;SDS011;6187;50.778;6.142;2023-07-20T13:57:20;0.98;;;0.82;;
12248;SDS011;6187;50.778;6.142;2023-07-20T13:59:48;0.60;;;0.60;;
12248;SDS011;6187;50.778;6.142;2023-07-20T14:02:18;0.85;;;0.80;;
12248;SDS011;6187;50.778;6.142;2023-07-20T14:04:49;1.10;;;0.85;;
12248;SDS011;6187;50.778;6.142;2023-07-20T14:07:39;0.70;;;0.70;;
12248;SDS011;6187;50.778;6.142;2023-07-20T14:10:10;0.70;;;0.70;;
12248;SDS011;6187;50.778;6.142;2023-07-20T14:12:41;0.70;;;0.70;;
12248;SDS011;6187;50.778;6.142;2023-07-20T14:15:11;0.80;;;0.80;;
12248;SDS011;6187;50.778;6.142;2023-07-20T14:17:40;0.60;;;0.60;;
12248;SDS011;6187;50.778;6.142;2023-07-20T14:20:11;1.05;;;0.90;;
12248;SDS011;6187;50.778;6.142;2023-07-20T14:22:44;2.05;;;0.80;;
12248;SDS011;6187;50.778;6.142;2023-07-20T14:25:16;0.93;;;0.83;;
12248;SDS011;6187;50.778;6.142;2023-07-20T14:27:46;0.73;;;0.73;;
12248;SDS011;6187;50.778;6.142;2023-07-20T14:30:14;1.02;;;0.90;;
12248;SDS011;6187;50.778;6.142;2023-07-20T14:32:43;0.77;;;0.70;;
12248;SDS011;6187;50.778;6.142;2023-07-20T14:35:12;0.80;;;0.80;;
12248;SDS011;6187;50.778;6.142;2023-07-20T14:37:41;0.70;;;0.70;;
12248;SDS011;6187;50.778;6.142;2023-07-20T14:40:14;0.70;;;0.70;;
12248;SDS011;6187;50.778;6.142;2023-07-20T14:42:43;1.60;;;1.20;;
12248;SDS011;6187;50.778;6.142;2023-07-20T14:45:12;1.70;;;1.40;;
12248;SDS011;6187;50.778;6.142;2023-07-20T14:47:40;1.25;;;0.90;;
12248;SDS011;6187;50.778;6.142;2023-07-20T14:50:09;0.80;;;0.80;;
12248;SDS011;6187;50.778;6.142;2023-07-20T14:52:38;0.90;;;0.90;;
12248;SDS011;6187;50.778;6.142;2023-07-20T14:55:09;0.70;;;0.70;;
12248;SDS011;6187;50.778;6.142;2023-07-20T14:57:39;1.30;;;1.10;;
12248;SDS011;6187;50.778;6.142;2023-07-20T15:00:09;1.02;;;0.90;;
12248;SDS011;6187;50.778;6.142;2023-07-20T15:02:37;1.08;;;0.80;;
12248;SDS011;6187;50.778;6.142;2023-07-20T15:05:07;0.98;;;0.98;;
12248;SDS011;6187;50.778;6.142;2023-07-20T15:07:36;0.80;;;0.80;;
12248;SDS011;6187;50.778;6.142;2023-07-20T15:10:05;1.50;;;0.90;;
12248;SDS011;6187;50.778;6.142;2023-07-20T15:12:34;0.73;;;0.70;;
12248;SDS011;6187;50.778;6.142;2023-07-20T15:15:07;1.00;;;0.90;;
12248;SDS011;6187;50.778;6.142;2023-07-20T15:17:36;0.82;;;0.82;;
12248;SDS011;6187;50.778;6.142;2023-07-20T15:20:06;0.95;;;0.90;;